Map

Track Data

SID SEASON NUMBER BASIN SUBBASIN NAME ISO_TIME NATURE LAT LON WMO_WIND WMO_PRES WMO_AGENCY TRACK_TYPE DIST2LAND LANDFALL IFLAG USA_AGENCY USA_ATCF_ID USA_LAT USA_LON USA_RECORD USA_STATUS USA_WIND USA_PRES USA_SSHS USA_R34_NE USA_R34_SE USA_R34_SW USA_R34_NW USA_R50_NE USA_R50_SE USA_R50_SW USA_R50_NW USA_R64_NE USA_R64_SE USA_R64_SW USA_R64_NW USA_POCI USA_ROCI USA_RMW USA_EYE TOKYO_LAT TOKYO_LON TOKYO_GRADE TOKYO_WIND TOKYO_PRES TOKYO_R50_DIR TOKYO_R50_LONG TOKYO_R50_SHORT TOKYO_R30_DIR TOKYO_R30_LONG TOKYO_R30_SHORT TOKYO_LAND CMA_LAT CMA_LON CMA_CAT CMA_WIND CMA_PRES HKO_LAT HKO_LON HKO_CAT HKO_WIND HKO_PRES NEWDELHI_LAT NEWDELHI_LON NEWDELHI_GRADE NEWDELHI_WIND NEWDELHI_PRES NEWDELHI_CI NEWDELHI_DP NEWDELHI_POCI REUNION_LAT REUNION_LON REUNION_TYPE REUNION_WIND REUNION_PRES REUNION_TNUM REUNION_CI REUNION_RMW REUNION_R34_NE REUNION_R34_SE REUNION_R34_SW REUNION_R34_NW REUNION_R50_NE REUNION_R50_SE REUNION_R50_SW REUNION_R50_NW REUNION_R64_NE REUNION_R64_SE REUNION_R64_SW REUNION_R64_NW BOM_LAT BOM_LON BOM_TYPE BOM_WIND BOM_PRES BOM_TNUM BOM_CI BOM_RMW BOM_R34_NE BOM_R34_SE BOM_R34_SW BOM_R34_NW BOM_R50_NE BOM_R50_SE BOM_R50_SW BOM_R50_NW BOM_R64_NE BOM_R64_SE BOM_R64_SW BOM_R64_NW BOM_ROCI BOM_POCI BOM_EYE BOM_POS_METHOD BOM_PRES_METHOD NADI_LAT NADI_LON NADI_CAT NADI_WIND NADI_PRES WELLINGTON_LAT WELLINGTON_LON WELLINGTON_WIND WELLINGTON_PRES DS824_LAT DS824_LON DS824_STAGE DS824_WIND DS824_PRES TD9636_LAT TD9636_LON TD9636_STAGE TD9636_WIND TD9636_PRES TD9635_LAT TD9635_LON TD9635_WIND TD9635_PRES TD9635_ROCI NEUMANN_LAT NEUMANN_LON NEUMANN_CLASS NEUMANN_WIND NEUMANN_PRES MLC_LAT MLC_LON MLC_CLASS MLC_WIND MLC_PRES USA_GUST BOM_GUST BOM_GUST_PER REUNION_GUST REUNION_GUST_PER USA_SEAHGT USA_SEARAD_NE USA_SEARAD_SE USA_SEARAD_SW USA_SEARAD_NW STORM_SPEED STORM_DIR
1927233N10144 1927 41 WP MM NOT_NAMED 1927-08-20 22:00:00 NR 10.2000 144.300 main 1401 1401 __________O___ -1 10.2000 144.300 7 10 279
1927233N10144 1927 41 WP MM NOT_NAMED 1927-08-21 00:00:00 NR 10.2498 143.976 main 1408 1421 __________P___ -1 10.2498 143.976 7 10 279
1927233N10144 1927 41 WP MM NOT_NAMED 1927-08-21 03:00:00 NR 10.3305 143.492 main 1431 1431 __________P___ -1 10.3305 143.492 7 10 281
1927233N10144 1927 41 WP MM NOT_NAMED 1927-08-21 06:00:00 NR 10.4275 143.016 main 1445 1440 __________P___ -1 10.4275 143.016 7 10 283
1927233N10144 1927 41 WP MM NOT_NAMED 1927-08-21 09:00:00 NR 10.5511 142.551 main 1451 1443 __________P___ -1 10.5511 142.551 7 9 286
1927233N10144 1927 41 WP MM NOT_NAMED 1927-08-21 10:00:00 NR 10.6000 142.400 main 1443 1440 __________O___ -1 10.6000 142.400 7 9 290
1927233N10144 1927 41 WP MM NOT_NAMED 1927-08-21 12:00:00 NR 10.7104 142.104 main 1444 1441 __________P___ -1 10.7104 142.104 7 9 293
1927233N10144 1927 41 WP MM NOT_NAMED 1927-08-21 15:00:00 NR 10.9014 141.684 main 1453 1450 __________P___ -1 10.9014 141.684 7 9 297
1927233N10144 1927 41 WP MM NOT_NAMED 1927-08-21 18:00:00 NR 11.1116 141.307 main 1461 1456 __________P___ -1 11.1116 141.307 7 8 302
1927233N10144 1927 41 WP MM NOT_NAMED 1927-08-21 21:00:00 NR 11.3284 140.990 main 1468 1468 __________P___ -1 11.3284 140.990 7 7 306
1927233N10144 1927 41 WP MM NOT_NAMED 1927-08-21 22:00:00 NR 11.4000 140.900 main 1474 1470 __________O___ -1 11.4000 140.900 7 6 310
1927233N10144 1927 41 WP MM NOT_NAMED 1927-08-22 00:00:00 NR 11.5252 140.748 main 1476 1476 __________P___ -1 11.5252 140.748 7 5 315
1927233N10144 1927 41 WP MM NOT_NAMED 1927-08-22 03:00:00 NR 11.7131 140.578 main 1493 1493 __________P___ -1 11.7131 140.578 7 5 323
1927233N10144 1927 41 WP MM NOT_NAMED 1927-08-22 06:00:00 NR 11.9093 140.451 main 1511 1507 __________P___ -1 11.9093 140.451 7 5 330
1927233N10144 1927 41 WP MM NOT_NAMED 1927-08-22 09:00:00 NR 12.1232 140.339 main 1524 1524 __________P___ -1 12.1232 140.339 7 5 333
1927233N10144 1927 41 WP MM NOT_NAMED 1927-08-22 10:00:00 NR 12.2000 140.300 main 1535 1535 __________O___ -1 12.2000 140.300 7 5 327
1927233N10144 1927 41 WP MM NOT_NAMED 1927-08-22 12:00:00 NR 12.3374 140.192 main 1542 1542 __________P___ -1 12.3374 140.192 7 5 324
1927233N10144 1927 41 WP MM NOT_NAMED 1927-08-22 15:00:00 NR 12.5617 140.030 main 1554 1546 __________P___ -1 12.5617 140.030 7 6 328
1927233N10144 1927 41 WP MM NOT_NAMED 1927-08-22 18:00:00 NR 12.8302 139.876 main 1548 1530 __________P___ -1 12.8302 139.876 7 7 335
1927233N10144 1927 41 WP MM NOT_NAMED 1927-08-22 21:00:00 NR 13.1678 139.740 main 1531 1531 __________P___ -1 13.1678 139.740 7 8 340
1927233N10144 1927 41 WP MM NOT_NAMED 1927-08-22 22:00:00 NR 13.3000 139.700 main 1533 1526 __________O___ -1 13.3000 139.700 7 9 345
1927233N10144 1927 41 WP MM NOT_NAMED 1927-08-23 00:00:00 NR 13.5960 139.628 main 1527 1525 __________P___ -1 13.5960 139.628 7 10 349
1927233N10144 1927 41 WP MM NOT_NAMED 1927-08-23 03:00:00 NR 14.1093 139.538 main 1527 1527 __________P___ -1 14.1093 139.538 7 11 352
1927233N10144 1927 41 WP MM NOT_NAMED 1927-08-23 06:00:00 NR 14.6833 139.468 main 1540 1533 __________P___ -1 14.6833 139.468 7 12 354
1927233N10144 1927 41 WP MM NOT_NAMED 1927-08-23 09:00:00 NR 15.2931 139.415 main 1541 1541 __________P___ -1 15.2931 139.415 7 12 355
1927233N10144 1927 41 WP MM NOT_NAMED 1927-08-23 10:00:00 NR 15.5000 139.400 main 1545 1545 __________O___ -1 15.5000 139.400 7 13 357
1927233N10144 1927 41 WP MM NOT_NAMED 1927-08-23 12:00:00 NR 15.9126 139.372 main 1555 1555 __________P___ -1 15.9126 139.372 7 13 357
1927233N10144 1927 41 WP MM NOT_NAMED 1927-08-23 15:00:00 NR 16.5508 139.342 main 1565 1565 __________P___ -1 16.5508 139.342 7 13 358
1927233N10144 1927 41 WP MM NOT_NAMED 1927-08-23 18:00:00 NR 17.1899 139.322 main 1586 1586 __________P___ -1 17.1899 139.322 7 13 359
1927233N10144 1927 41 WP MM NOT_NAMED 1927-08-23 21:00:00 NR 17.8047 139.306 main 1609 1609 __________P___ -1 17.8047 139.306 7 12 0
1927233N10144 1927 41 WP MM NOT_NAMED 1927-08-23 22:00:00 NR 18.0000 139.300 main 1617 1617 __________O___ -1 18.0000 139.300 2 11 0
1927233N10144 1927 41 WP MM NOT_NAMED 1927-08-24 00:00:00 NR 18.3618 139.296 main 1634 1604 __________P___ -1 18.3618 139.296 2 11 359
1927233N10144 1927 41 WP MM NOT_NAMED 1927-08-24 03:00:00 NR 18.8730 139.291 main 1604 1556 __________P___ -1 18.8730 139.291 2 10 360
1927233N10144 1927 41 WP MM NOT_NAMED 1927-08-24 06:00:00 NR 19.3603 139.272 main 1556 1512 __________P___ -1 19.3603 139.272 2 10 356
1927233N10144 1927 41 WP MM NOT_NAMED 1927-08-24 09:00:00 NR 19.8394 139.225 main 1512 1492 __________P___ -1 19.8394 139.225 2 10 354
1927233N10144 1927 41 WP MM NOT_NAMED 1927-08-24 10:00:00 NR 20.0000 139.200 main 1492 1448 __________O___ -1 20.0000 139.200 2 11 351
1927233N10144 1927 41 WP MM NOT_NAMED 1927-08-24 12:00:00 NR 20.3595 139.137 main 1448 1395 __________P___ -1 20.3595 139.137 2 11 349
1927233N10144 1927 41 WP MM NOT_NAMED 1927-08-24 15:00:00 NR 20.8994 139.010 main 1395 1342 __________P___ -1 20.8994 139.010 2 11 346
1927233N10144 1927 41 WP MM NOT_NAMED 1927-08-24 18:00:00 NR 21.4122 138.851 main 1342 1284 __________P___ -1 21.4122 138.851 2 10 342
1927233N10144 1927 41 WP MM NOT_NAMED 1927-08-24 21:00:00 NR 21.8668 138.666 main 1284 1269 __________P___ -1 21.8668 138.666 2 10 338
1927233N10144 1927 41 WP MM NOT_NAMED 1927-08-24 22:00:00 NR 22.0000 138.600 main 1269 1244 __________O___ -1 22.0000 138.600 2 8 335
1927233N10144 1927 41 WP MM NOT_NAMED 1927-08-25 00:00:00 NR 22.2314 138.485 main 1244 1205 __________P___ -1 22.2314 138.485 2 7 331
1927233N10144 1927 41 WP MM NOT_NAMED 1927-08-25 03:00:00 NR 22.5156 138.294 main 1205 1175 __________P___ -1 22.5156 138.294 2 6 323
1927233N10144 1927 41 WP MM NOT_NAMED 1927-08-25 06:00:00 NR 22.7441 138.071 main 1175 1140 __________P___ -1 22.7441 138.071 2 6 313
1927233N10144 1927 41 WP MM NOT_NAMED 1927-08-25 09:00:00 NR 22.9388 137.802 main 1140 1125 __________P___ -1 22.9388 137.802 2 6 307
1927233N10144 1927 41 WP MM NOT_NAMED 1927-08-25 10:00:00 NR 23.0000 137.700 main 1125 1104 __________O___ -1 23.0000 137.700 2 7 304
1927233N10144 1927 41 WP MM NOT_NAMED 1927-08-25 12:00:00 NR 23.1308 137.496 main 1104 1064 __________P___ -1 23.1308 137.496 2 7 301
1927233N10144 1927 41 WP MM NOT_NAMED 1927-08-25 15:00:00 NR 23.3081 137.148 main 1064 1024 __________P___ -1 23.3081 137.148 2 8 296
1927233N10144 1927 41 WP MM NOT_NAMED 1927-08-25 18:00:00 NR 23.4741 136.741 main 1024 993 __________P___ -1 23.4741 136.741 2 9 293
1927233N10144 1927 41 WP MM NOT_NAMED 1927-08-25 21:00:00 NR 23.6416 136.272 main 993 973 __________P___ -1 23.6416 136.272 2 9 291
1927233N10144 1927 41 WP MM NOT_NAMED 1927-08-25 22:00:00 NR 23.7000 136.100 main 973 942 __________O___ -1 23.7000 136.100 2 11 291
1927233N10144 1927 41 WP MM NOT_NAMED 1927-08-26 00:00:00 NR 23.8331 135.735 main 942 893 __________P___ -1 23.8331 135.735 2 11 291
1927233N10144 1927 41 WP MM NOT_NAMED 1927-08-26 03:00:00 NR 24.0390 135.130 main 893 846 __________P___ -1 24.0390 135.130 2 12 290
1927233N10144 1927 41 WP MM NOT_NAMED 1927-08-26 06:00:00 NR 24.2440 134.482 main 846 797 __________P___ -1 24.2440 134.482 2 13 288
1927233N10144 1927 41 WP MM NOT_NAMED 1927-08-26 09:00:00 NR 24.4388 133.819 main 797 779 __________P___ -1 24.4388 133.819 2 13 288
1927233N10144 1927 41 WP MM NOT_NAMED 1927-08-26 10:00:00 NR 24.5000 133.600 main 779 755 __________O___ -1 24.5000 133.600 2 12 287
1927233N10144 1927 41 WP MM NOT_NAMED 1927-08-26 12:00:00 NR 24.6155 133.168 main 755 714 __________P___ -1 24.6155 133.168 2 12 286
1927233N10144 1927 41 WP MM NOT_NAMED 1927-08-26 15:00:00 NR 24.7741 132.536 main 714 691 __________P___ -1 24.7741 132.536 2 12 285
1927233N10144 1927 41 WP MM NOT_NAMED 1927-08-26 18:00:00 NR 24.9192 131.916 main 691 661 __________P___ -1 24.9192 131.916 2 12 284
1927233N10144 1927 41 WP MM NOT_NAMED 1927-08-26 21:00:00 NR 25.0556 131.304 main 661 659 __________P___ -1 25.0556 131.304 2 11 284
1927233N10144 1927 41 WP MM NOT_NAMED 1927-08-26 22:00:00 NR 25.1000 131.100 main 659 __________O___ -1 25.1000 131.100 2 11 284

Digital Typhoon Data and Search

About IBTrACS Database

This database is a web-friendly format of International Best Track Archive for Climate Stewardship (IBTrACS), a global best track data archive curated by NOAA dating back to 1842.

Updated: 2021-11-26